Time;durP1;ratioP1;P1;durP2;ratioP2;P2;SDS_P1;SDS_P2;PMS_P1;PMS_P2;Temp;Humidity;BMP_temperature;BMP_pressure;BME280_temperature;BME280_humidity;BME280_pressure;Samples;Min_cycle;Max_cycle;Signal;HPM_P1;HPM_P2
2023/10/04 00:02:19;;;;;;;2.00;0.70;;;20.20;74.10;;;;;;6279863;22;20165;-70
2023/10/04 00:04:45;;;;;;;2.88;0.90;;;20.20;74.10;;;;;;6279928;22;20043;-70
2023/10/04 00:07:11;;;;;;;3.90;0.80;;;20.20;74.20;;;;;;6279942;22;20068;-70
2023/10/04 00:09:37;;;;;;;3.28;0.82;;;20.20;74.10;;;;;;6279402;22;20023;-70
2023/10/04 00:12:03;;;;;;;2.85;1.00;;;20.20;74.10;;;;;;6280471;22;20011;-70
2023/10/04 00:14:29;;;;;;;3.83;0.90;;;20.20;74.10;;;;;;6280313;22;20383;-70
2023/10/04 00:16:54;;;;;;;2.25;0.70;;;20.20;74.10;;;;;;6306381;22;20466;-70
2023/10/04 00:19:20;;;;;;;3.17;0.88;;;20.20;74.10;;;;;;6307701;22;20019;-70
2023/10/04 00:21:46;;;;;;;1.88;0.80;;;20.20;74.10;;;;;;6280417;22;20020;-70
2023/10/04 00:24:13;;;;;;;3.88;0.90;;;20.20;74.10;;;;;;6306585;22;20011;-70
2023/10/04 00:26:39;;;;;;;5.15;0.90;;;20.20;74.00;;;;;;6280257;22;20414;-70
2023/10/04 00:29:04;;;;;;;4.55;1.20;;;20.20;74.10;;;;;;6280233;22;20015;-70
2023/10/04 00:31:31;;;;;;;2.92;1.00;;;20.20;74.00;;;;;;6278957;22;20019;-70
2023/10/04 00:33:57;;;;;;;2.80;1.05;;;20.10;74.00;;;;;;6280357;22;20015;-70
2023/10/04 00:36:22;;;;;;;3.70;1.00;;;20.20;74.00;;;;;;6279862;22;20019;-70
2023/10/04 00:38:48;;;;;;;4.53;0.90;;;20.20;74.00;;;;;;6279244;22;20066;-70
2023/10/04 00:41:14;;;;;;;2.83;0.80;;;20.10;74.00;;;;;;6279978;22;20019;-70
2023/10/04 00:43:49;;;;;;;2.45;1.05;;;20.10;74.00;;;;;;6280108;22;20023;-69
2023/10/04 00:46:17;;;;;;;3.55;0.70;;;20.10;74.00;;;;;;6278859;22;20034;-70
2023/10/04 00:48:44;;;;;;;3.22;1.30;;;20.10;73.90;;;;;;6229982;22;20022;-70
2023/10/04 00:51:09;;;;;;;3.42;1.00;;;20.10;74.00;;;;;;6229593;22;20069;-70
2023/10/04 00:53:35;;;;;;;1.77;0.70;;;20.10;73.90;;;;;;6228423;22;20102;-70
2023/10/04 00:56:02;;;;;;;3.75;1.00;;;20.10;73.90;;;;;;6280199;22;20011;-70
2023/10/04 00:58:28;;;;;;;3.63;0.98;;;20.10;74.50;;;;;;6229205;22;20015;-70
2023/10/04 01:00:54;;;;;;;4.22;0.90;;;20.10;73.90;;;;;;6253340;22;20320;-70
2023/10/04 01:03:24;;;;;;;3.07;0.80;;;20.10;73.90;;;;;;6279615;22;20020;-70
2023/10/04 01:05:51;;;;;;;2.05;0.80;;;20.10;73.90;;;;;;6278993;22;20019;-70
2023/10/04 01:08:23;;;;;;;2.53;0.70;;;20.10;73.90;;;;;;6279546;22;20015;-70
2023/10/04 01:10:50;;;;;;;2.88;0.85;;;20.10;73.90;;;;;;6279917;22;20317;-70
2023/10/04 01:13:20;;;;;;;1.95;0.60;;;20.10;73.90;;;;;;6278679;22;20090;-70
2023/10/04 01:15:46;;;;;;;1.98;0.70;;;20.10;73.90;;;;;;6279618;22;20500;-70
2023/10/04 01:18:12;;;;;;;2.78;0.88;;;20.00;73.90;;;;;;6279423;22;20055;-70
2023/10/04 01:20:38;;;;;;;3.08;1.05;;;20.10;73.90;;;;;;6278870;22;20102;-70
2023/10/04 01:23:06;;;;;;;2.88;1.02;;;20.10;73.90;;;;;;6279652;22;20019;-69
2023/10/04 01:25:35;;;;;;;3.37;1.20;;;20.00;73.90;;;;;;6278050;22;20015;-70
2023/10/04 01:28:03;;;;;;;3.05;0.90;;;20.00;73.90;;;;;;6278534;22;20023;-70
2023/10/04 01:30:29;;;;;;;2.03;0.75;;;20.00;73.90;;;;;;6279408;22;20011;-70
2023/10/04 01:32:55;;;;;;;4.40;0.90;;;20.00;73.90;;;;;;6279824;22;20406;-70
2023/10/04 01:35:24;;;;;;;1.92;0.60;;;20.00;73.90;;;;;;6278381;22;20015;-70
2023/10/04 01:37:53;;;;;;;2.38;0.80;;;20.00;73.90;;;;;;6279560;22;20019;-70
2023/10/04 01:40:19;;;;;;;2.20;0.90;;;20.00;73.80;;;;;;6278910;22;20072;-70
2023/10/04 01:42:45;;;;;;;2.70;1.00;;;20.00;73.90;;;;;;6305682;22;20019;-70
2023/10/04 01:45:14;;;;;;;2.13;0.70;;;20.00;73.90;;;;;;6278844;22;20090;-70
2023/10/04 01:47:40;;;;;;;2.55;0.63;;;20.00;73.90;;;;;;6279793;22;20034;-70
2023/10/04 01:50:06;;;;;;;2.33;0.70;;;20.00;73.90;;;;;;6278729;22;20011;-70
2023/10/04 01:52:32;;;;;;;2.38;0.80;;;20.00;73.90;;;;;;6278427;22;20019;-70
2023/10/04 01:54:58;;;;;;;3.72;0.80;;;20.00;73.90;;;;;;6277903;22;20019;-68
2023/10/04 01:57:24;;;;;;;2.38;0.70;;;20.00;73.90;;;;;;6279070;22;20019;-68
2023/10/04 01:59:49;;;;;;;2.17;0.70;;;20.00;73.90;;;;;;6306622;22;20015;-68
2023/10/04 02:02:17;;;;;;;3.25;0.90;;;20.00;73.90;;;;;;6305459;22;20106;-70
2023/10/04 02:04:51;;;;;;;2.50;0.73;;;20.00;73.90;;;;;;6279144;22;20490;-70
2023/10/04 02:07:17;;;;;;;2.42;0.70;;;20.00;74.50;;;;;;6279089;22;20023;-69
2023/10/04 02:09:43;;;;;;;1.75;0.73;;;20.00;73.90;;;;;;6278522;22;20477;-70
2023/10/04 02:12:09;;;;;;;3.00;0.82;;;20.00;73.90;;;;;;6279257;22;20019;-70
2023/10/04 02:14:34;;;;;;;1.58;0.60;;;20.00;73.80;;;;;;6279569;22;20015;-70
2023/10/04 02:17:00;;;;;;;3.85;1.00;;;20.00;73.90;;;;;;6305818;22;20029;-69
2023/10/04 02:19:26;;;;;;;2.25;0.70;;;20.00;73.90;;;;;;6279244;22;20019;-70
2023/10/04 02:21:52;;;;;;;2.42;0.70;;;20.00;73.90;;;;;;6279341;22;20019;-69
2023/10/04 02:24:17;;;;;;;3.20;0.90;;;19.90;73.80;;;;;;6278199;22;20022;-69
2023/10/04 02:26:43;;;;;;;2.97;0.65;;;19.90;73.80;;;;;;6306773;22;20086;-69
2023/10/04 02:29:09;;;;;;;2.92;0.73;;;19.90;73.80;;;;;;6279070;22;20443;-70
2023/10/04 02:31:36;;;;;;;1.65;0.57;;;19.90;73.80;;;;;;6278672;22;20022;-70
2023/10/04 02:34:04;;;;;;;2.92;1.00;;;19.90;73.80;;;;;;6279040;22;20012;-70
2023/10/04 02:36:30;;;;;;;3.58;0.82;;;19.90;73.80;;;;;;6277785;22;20332;-70
2023/10/04 02:38:57;;;;;;;2.60;0.75;;;19.90;73.80;;;;;;6278346;22;20022;-69
2023/10/04 02:41:23;;;;;;;3.42;0.52;;;19.90;73.80;;;;;;6280978;22;20029;-70
2023/10/04 02:43:48;;;;;;;1.80;0.70;;;19.90;73.80;;;;;;6281276;22;20039;-70
2023/10/04 02:46:16;;;;;;;2.25;0.60;;;19.90;73.80;;;;;;6280249;22;20370;-70
2023/10/04 02:48:42;;;;;;;2.45;0.80;;;19.90;73.80;;;;;;6281362;22;20019;-70
2023/10/04 02:51:07;;;;;;;2.20;0.80;;;19.90;73.80;;;;;;6280594;22;20015;-70
2023/10/04 02:53:34;;;;;;;2.72;0.85;;;19.90;73.80;;;;;;6280666;22;20019;-69
2023/10/04 02:56:06;;;;;;;2.92;0.77;;;19.90;73.80;;;;;;6281208;22;20019;-69
2023/10/04 02:58:32;;;;;;;1.92;0.65;;;19.90;73.90;;;;;;6279438;22;20030;-69
2023/10/04 03:00:57;;;;;;;2.75;0.93;;;19.90;73.80;;;;;;6280888;22;20011;-69
2023/10/04 03:03:25;;;;;;;2.08;0.63;;;19.90;73.90;;;;;;6308054;22;20100;-70
2023/10/04 03:05:54;;;;;;;1.70;0.53;;;19.90;74.50;;;;;;6280224;22;20098;-70
2023/10/04 03:08:20;;;;;;;2.08;0.57;;;19.90;73.90;;;;;;6280614;22;20559;-69
2023/10/04 03:10:50;;;;;;;1.98;0.77;;;19.90;74.00;;;;;;6281248;22;20023;-69
2023/10/04 03:13:25;;;;;;;2.55;0.70;;;19.90;74.00;;;;;;6279467;22;20152;-70
2023/10/04 03:15:54;;;;;;;1.50;0.70;;;19.90;74.10;;;;;;6281006;22;20431;-70
2023/10/04 03:18:20;;;;;;;2.05;0.73;;;19.90;74.10;;;;;;6280649;22;20066;-70
2023/10/04 03:23:33;;;;;;;1.67;0.63;;;19.90;74.10;;;;;;6280542;22;20055;-70
2023/10/04 03:26:00;;;;;;;1.85;0.80;;;19.90;74.00;;;;;;6281078;22;20043;-70
2023/10/04 03:28:26;;;;;;;3.47;0.70;;;20.00;74.00;;;;;;6279461;22;20030;-69
2023/10/04 03:30:52;;;;;;;1.45;0.60;;;20.00;74.00;;;;;;6280694;22;20012;-70
2023/10/04 03:33:18;;;;;;;4.10;0.82;;;20.00;73.90;;;;;;6280436;22;20347;-70
2023/10/04 03:35:44;;;;;;;2.97;0.60;;;20.00;74.00;;;;;;6280114;22;20022;-70
2023/10/04 03:38:11;;;;;;;1.45;0.57;;;20.00;73.90;;;;;;6279544;22;20031;-70
2023/10/04 03:40:38;;;;;;;3.25;0.88;;;20.00;73.90;;;;;;6279888;22;20015;-70
2023/10/04 03:43:08;;;;;;;2.60;0.70;;;20.00;73.90;;;;;;6280367;22;20019;-70
2023/10/04 03:45:41;;;;;;;2.60;0.80;;;20.00;73.90;;;;;;6281024;22;20088;-70
2023/10/04 03:48:15;;;;;;;1.88;0.60;;;20.00;74.00;;;;;;6279873;22;20015;-70
2023/10/04 03:50:46;;;;;;;1.52;0.60;;;20.00;73.90;;;;;;6280624;22;20383;-70
2023/10/04 03:53:12;;;;;;;2.17;0.70;;;20.10;74.00;;;;;;6280288;22;20022;-70
2023/10/04 03:55:38;;;;;;;2.40;0.60;;;20.10;74.00;;;;;;6278739;22;20023;-70
2023/10/04 03:58:04;;;;;;;2.20;0.70;;;20.10;74.00;;;;;;6280605;22;20336;-70
2023/10/04 04:00:33;;;;;;;2.88;0.90;;;20.10;74.00;;;;;;6279085;22;20065;-70
2023/10/04 04:02:59;;;;;;;3.20;0.63;;;20.10;74.00;;;;;;6279243;22;20347;-70
2023/10/04 04:05:25;;;;;;;1.48;0.50;;;20.10;74.00;;;;;;6278922;22;20011;-71
2023/10/04 04:07:51;;;;;;;3.33;0.70;;;20.10;73.90;;;;;;6279695;22;20019;-70
2023/10/04 04:10:19;;;;;;;1.67;0.70;;;20.10;74.00;;;;;;6279185;22;20036;-70
2023/10/04 04:12:46;;;;;;;1.30;0.65;;;20.10;73.90;;;;;;6280535;22;20347;-70
2023/10/04 04:15:12;;;;;;;2.58;0.70;;;20.10;73.90;;;;;;6279607;22;20015;-70
2023/10/04 04:17:39;;;;;;;1.65;0.80;;;20.10;73.90;;;;;;6279335;22;20451;-71
2023/10/04 04:20:16;;;;;;;2.60;0.70;;;20.10;73.90;;;;;;6280595;22;20015;-70
2023/10/04 04:22:50;;;;;;;2.28;0.65;;;20.10;73.90;;;;;;6307106;22;20011;-70
2023/10/04 04:25:23;;;;;;;2.30;0.68;;;20.10;73.90;;;;;;6307520;22;20058;-70
2023/10/04 04:27:52;;;;;;;1.92;0.60;;;20.10;73.90;;;;;;6280422;22;20023;-70
2023/10/04 04:30:20;;;;;;;2.63;0.68;;;20.10;73.90;;;;;;6278793;22;20011;-70
2023/10/04 04:32:52;;;;;;;;;;;20.10;73.90;;;;;;6280799;22;20015;-70
2023/10/04 04:38:17;;;;;;;2.38;0.70;;;20.10;73.90;;;;;;6279084;22;20027;-69
2023/10/04 04:40:48;;;;;;;1.85;0.70;;;20.10;73.90;;;;;;6254722;22;20022;-69
2023/10/04 04:45:51;;;;;;;1.65;0.52;;;20.10;73.90;;;;;;6279271;22;20030;-70
2023/10/04 04:48:18;;;;;;;1.90;0.57;;;20.10;73.90;;;;;;6279836;22;20011;-70
2023/10/04 04:50:43;;;;;;;0.95;0.50;;;20.10;73.90;;;;;;6279397;22;20347;-70
2023/10/04 04:53:14;;;;;;;2.08;0.60;;;20.10;74.00;;;;;;6279461;22;20102;-70
2023/10/04 04:55:40;;;;;;;3.35;1.00;;;20.10;73.90;;;;;;6280057;22;20026;-69
2023/10/04 04:58:06;;;;;;;2.05;0.60;;;20.10;73.90;;;;;;6278781;22;20011;-70
2023/10/04 05:00:33;;;;;;;2.28;0.50;;;20.10;73.90;;;;;;6279459;22;20043;-70
2023/10/04 05:03:00;;;;;;;2.72;0.77;;;20.10;73.90;;;;;;6279748;22;20068;-70
2023/10/04 05:05:26;;;;;;;2.10;0.60;;;20.10;73.90;;;;;;6278691;22;20023;-70
2023/10/04 05:07:52;;;;;;;3.40;0.75;;;20.10;74.00;;;;;;6279753;22;20015;-70
2023/10/04 05:10:18;;;;;;;1.60;0.60;;;20.00;73.90;;;;;;6279443;22;20470;-70
2023/10/04 05:12:46;;;;;;;2.15;0.82;;;20.10;74.00;;;;;;6306258;22;20023;-70
2023/10/04 05:15:22;;;;;;;;;;;20.10;74.00;;;;;;6280028;22;20095;-70
2023/10/04 05:17:50;;;;;;;3.53;0.68;;;20.00;74.50;;;;;;6279918;22;19968;-70
2023/10/04 05:20:20;;;;;;;2.20;0.70;;;20.00;73.90;;;;;;6278481;22;20020;-70
2023/10/04 05:22:47;;;;;;;2.35;0.70;;;20.00;73.90;;;;;;6279820;22;20454;-70
2023/10/04 05:25:12;;;;;;;1.42;0.60;;;20.00;74.00;;;;;;6279425;22;20016;-70
2023/10/04 05:27:38;;;;;;;2.63;0.60;;;20.00;74.00;;;;;;6276419;22;20026;-70
2023/10/04 05:30:04;;;;;;;2.65;0.70;;;20.00;74.00;;;;;;6277179;22;20019;-68
2023/10/04 05:32:30;;;;;;;2.63;0.63;;;20.00;74.10;;;;;;6276653;22;20026;-70
2023/10/04 05:34:56;;;;;;;2.15;0.70;;;20.00;74.10;;;;;;6276810;22;20103;-70
2023/10/04 05:37:22;;;;;;;1.70;0.60;;;20.00;74.10;;;;;;6278532;22;20015;-71
2023/10/04 05:39:47;;;;;;;1.67;0.55;;;20.00;74.10;;;;;;6278092;22;20019;-70
2023/10/04 05:42:13;;;;;;;1.85;0.70;;;20.00;74.10;;;;;;6277195;22;20115;-70
2023/10/04 05:44:38;;;;;;;2.22;0.60;;;20.00;74.10;;;;;;6278819;22;20454;-70
2023/10/04 05:47:05;;;;;;;2.83;0.70;;;20.00;74.20;;;;;;6306338;22;20094;-70
2023/10/04 05:49:31;;;;;;;2.85;0.70;;;20.00;74.20;;;;;;6306459;22;20023;-70
2023/10/04 05:51:58;;;;;;;1.92;0.60;;;20.00;74.20;;;;;;6306908;22;20019;-67
2023/10/04 05:54:23;;;;;;;2.90;0.70;;;20.00;74.20;;;;;;6305615;22;20015;-67
2023/10/04 05:56:49;;;;;;;2.58;0.77;;;20.00;74.10;;;;;;6279132;22;20023;-68
2023/10/04 05:59:14;;;;;;;2.80;0.50;;;20.00;74.10;;;;;;6279161;22;20034;-67
2023/10/04 06:01:41;;;;;;;3.60;0.80;;;20.00;74.20;;;;;;6277448;22;20463;-69
2023/10/04 06:04:07;;;;;;;3.05;0.88;;;20.10;74.20;;;;;;6274890;22;20015;-65
2023/10/04 06:06:33;;;;;;;1.65;0.63;;;20.10;74.30;;;;;;6277916;22;20042;-64
2023/10/04 06:08:59;;;;;;;4.00;0.80;;;20.10;74.20;;;;;;6274059;22;20058;-64
2023/10/04 06:11:25;;;;;;;3.70;0.73;;;20.10;74.30;;;;;;6304700;22;20019;-64
2023/10/04 06:13:50;;;;;;;2.67;0.60;;;20.10;74.50;;;;;;6278081;22;20068;-65
2023/10/04 06:16:19;;;;;;;3.97;0.90;;;20.10;74.50;;;;;;6278673;22;20019;-64
2023/10/04 06:18:48;;;;;;;1.85;0.60;;;20.10;74.50;;;;;;6306742;22;20016;-65
2023/10/04 06:21:16;;;;;;;3.88;0.75;;;20.10;74.60;;;;;;6277404;22;20565;-64
2023/10/04 06:23:43;;;;;;;3.97;0.70;;;20.20;74.70;;;;;;6305662;22;20439;-65
2023/10/04 06:26:09;;;;;;;2.50;0.50;;;20.20;74.60;;;;;;6304052;22;20029;-66
2023/10/04 06:28:34;;;;;;;2.15;0.65;;;20.20;74.70;;;;;;6305757;22;20015;-68
2023/10/04 06:31:02;;;;;;;3.67;0.90;;;20.20;74.70;;;;;;6279458;22;20011;-68
2023/10/04 06:33:27;;;;;;;6.25;0.95;;;20.20;74.70;;;;;;6279344;22;20430;-69
2023/10/04 06:35:53;;;;;;;2.25;0.77;;;20.20;74.70;;;;;;6278227;22;20012;-69
2023/10/04 06:38:20;;;;;;;3.95;0.80;;;20.30;74.80;;;;;;6277047;22;20026;-71
2023/10/04 06:40:46;;;;;;;4.70;0.80;;;20.30;74.80;;;;;;6281433;22;20053;-71
2023/10/04 06:43:14;;;;;;;3.30;0.90;;;20.30;74.80;;;;;;6280350;22;20030;-71
2023/10/04 06:45:40;;;;;;;2.92;0.70;;;20.30;74.90;;;;;;6280218;22;20015;-71
2023/10/04 06:48:05;;;;;;;3.28;0.68;;;20.30;74.80;;;;;;6308585;22;20424;-70
2023/10/04 06:50:40;;;;;;;3.70;0.88;;;20.30;74.90;;;;;;6279771;22;20086;-67
2023/10/04 06:53:06;;;;;;;4.57;0.85;;;20.30;74.90;;;;;;6308955;22;20015;-70
2023/10/04 06:55:33;;;;;;;3.58;1.10;;;20.40;74.90;;;;;;6279343;22;20019;-71
2023/10/04 06:57:58;;;;;;;3.80;0.80;;;20.40;74.80;;;;;;6307285;22;20098;-70
2023/10/04 07:00:26;;;;;;;4.97;0.88;;;20.40;74.80;;;;;;6274633;22;20050;-71
2023/10/04 07:02:58;;;;;;;5.32;0.85;;;20.40;74.80;;;;;;6275754;22;20076;-70
2023/10/04 07:05:24;;;;;;;4.38;0.90;;;20.40;74.70;;;;;;6274440;22;20026;-71
2023/10/04 07:07:53;;;;;;;3.83;0.70;;;20.40;74.70;;;;;;6275018;22;20077;-71
2023/10/04 07:10:23;;;;;;;3.90;0.70;;;20.40;74.70;;;;;;6275788;22;20015;-69
2023/10/04 07:12:51;;;;;;;7.43;0.90;;;20.40;75.30;;;;;;6272656;22;20030;-69
2023/10/04 07:15:18;;;;;;;3.88;0.88;;;20.40;74.70;;;;;;6271959;22;20102;-69
2023/10/04 07:17:43;;;;;;;2.63;0.80;;;20.40;74.60;;;;;;6272275;22;20019;-68
2023/10/04 07:20:14;;;;;;;5.78;0.90;;;20.40;74.60;;;;;;6271659;22;20499;-69
2023/10/04 07:22:45;;;;;;;3.47;1.10;;;20.40;74.60;;;;;;6273207;22;20448;-68
2023/10/04 07:25:12;;;;;;;5.78;1.02;;;20.50;74.60;;;;;;6275666;22;20034;-68
2023/10/04 07:27:40;;;;;;;4.30;0.88;;;20.50;74.60;;;;;;6274131;22;20015;-67
2023/10/04 07:30:07;;;;;;;4.07;0.80;;;20.50;74.60;;;;;;6275527;22;20153;-69
2023/10/04 07:32:33;;;;;;;4.15;0.68;;;20.50;74.70;;;;;;6274577;22;20019;-72
2023/10/04 07:35:00;;;;;;;5.95;0.95;;;20.50;74.60;;;;;;6277352;22;20039;-68
2023/10/04 07:37:26;;;;;;;4.90;0.82;;;20.50;74.60;;;;;;6275265;22;20440;-69
2023/10/04 07:39:52;;;;;;;7.07;1.13;;;20.40;74.40;;;;;;6274415;22;20026;-68
2023/10/04 07:42:21;;;;;;;4.65;1.30;;;20.50;74.40;;;;;;6275237;22;20045;-68
2023/10/04 07:44:46;;;;;;;;;;;20.50;74.40;;;;;;6275794;22;20027;-68
2023/10/04 07:47:12;;;;;;;3.97;1.08;;;20.50;74.40;;;;;;6274225;22;19915;-68
2023/10/04 07:49:38;;;;;;;4.13;1.10;;;20.50;74.40;;;;;;6275378;22;20008;-68
2023/10/04 07:52:04;;;;;;;3.40;0.93;;;20.50;74.40;;;;;;6275320;22;20428;-68
2023/10/04 07:54:29;;;;;;;4.35;1.38;;;20.50;74.40;;;;;;6274341;22;20615;-68
2023/10/04 07:56:55;;;;;;;4.47;1.10;;;20.50;74.40;;;;;;6275262;22;20015;-68
2023/10/04 07:59:20;;;;;;;3.10;1.17;;;20.50;74.40;;;;;;6275941;22;20034;-69
2023/10/04 08:01:46;;;;;;;4.78;1.60;;;20.50;74.40;;;;;;6274283;22;20016;-68
2023/10/04 08:04:12;;;;;;;4.30;1.10;;;20.50;74.30;;;;;;6274815;22;20016;-69
2023/10/04 08:06:40;;;;;;;7.20;1.48;;;20.50;74.20;;;;;;6275228;22;20122;-68
2023/10/04 08:09:06;;;;;;;3.22;1.15;;;20.50;74.20;;;;;;6275786;22;20043;-68
2023/10/04 08:11:33;;;;;;;5.75;1.02;;;20.60;74.20;;;;;;6274772;22;20077;-68
2023/10/04 08:13:59;;;;;;;5.75;1.30;;;20.60;74.20;;;;;;6275035;22;20016;-68
2023/10/04 08:16:24;;;;;;;5.60;1.08;;;20.60;74.10;;;;;;6273875;22;20011;-69
2023/10/04 08:18:50;;;;;;;4.25;1.10;;;20.60;74.10;;;;;;6275049;22;20082;-68
2023/10/04 08:21:16;;;;;;;3.63;1.05;;;20.60;74.00;;;;;;6274130;22;20090;-68
2023/10/04 08:23:41;;;;;;;7.30;1.40;;;20.70;74.10;;;;;;6272810;22;20104;-68
2023/10/04 08:26:14;;;;;;;2.80;0.95;;;20.60;74.00;;;;;;6274235;22;20038;-68
2023/10/04 08:28:41;;;;;;;3.25;1.05;;;20.70;73.90;;;;;;6274129;22;20029;-68
2023/10/04 08:31:08;;;;;;;3.55;1.02;;;20.70;73.90;;;;;;6274165;22;20432;-68
2023/10/04 08:33:34;;;;;;;6.40;1.40;;;20.70;73.90;;;;;;6274848;22;20085;-68
2023/10/04 08:36:03;;;;;;;6.72;1.48;;;20.70;73.90;;;;;;6271857;22;20503;-68
2023/10/04 08:38:29;;;;;;;4.18;1.40;;;20.70;73.90;;;;;;6272516;22;20026;-68
2023/10/04 08:40:54;;;;;;;4.78;1.60;;;20.70;73.80;;;;;;6273860;22;20020;-68
2023/10/04 08:43:20;;;;;;;3.25;1.10;;;20.70;74.40;;;;;;6273750;22;20024;-68
2023/10/04 08:45:46;;;;;;;5.18;1.58;;;20.80;73.80;;;;;;6249042;22;20008;-68
2023/10/04 08:48:12;;;;;;;4.60;1.33;;;20.80;73.80;;;;;;6274450;22;20015;-68
2023/10/04 08:50:38;;;;;;;4.03;1.10;;;20.80;73.70;;;;;;6248235;22;20074;-68
2023/10/04 08:53:25;;;;;;;5.10;1.17;;;20.80;73.70;;;;;;6274853;22;20444;-68
2023/10/04 08:55:59;;;;;;;5.17;1.50;;;20.80;73.60;;;;;;6274266;22;20023;-69
2023/10/04 08:58:25;;;;;;;2.97;1.15;;;20.80;73.60;;;;;;6249187;22;20384;-68
2023/10/04 09:00:51;;;;;;;5.05;1.42;;;20.80;73.50;;;;;;6223031;22;20023;-69
2023/10/04 09:03:16;;;;;;;7.47;1.70;;;20.80;73.30;;;;;;6249056;22;20026;-68
2023/10/04 09:05:46;;;;;;;7.22;1.80;;;20.80;72.90;;;;;;6223227;22;20020;-68
2023/10/04 09:08:14;;;;;;;6.32;1.75;;;20.80;72.40;;;;;;6249318;22;20332;-67
2023/10/04 09:10:40;;;;;;;4.30;1.33;;;20.80;72.20;;;;;;6249813;22;20042;-68
2023/10/04 09:13:06;;;;;;;5.38;1.50;;;20.80;72.20;;;;;;6247582;22;20016;-68
2023/10/04 09:15:31;;;;;;;6.22;2.10;;;20.80;72.20;;;;;;6272966;22;20047;-68
2023/10/04 09:17:57;;;;;;;5.13;1.52;;;20.80;72.30;;;;;;6273711;22;20022;-68
2023/10/04 09:20:30;;;;;;;7.20;1.50;;;20.80;72.30;;;;;;6273482;22;20378;-67
2023/10/04 09:23:04;;;;;;;10.65;1.90;;;20.90;72.30;;;;;;6273625;22;20348;-67
2023/10/04 09:25:36;;;;;;;5.10;1.52;;;20.90;72.30;;;;;;6273131;22;20064;-67
2023/10/04 09:28:04;;;;;;;6.30;1.42;;;20.90;72.30;;;;;;6273872;22;20018;-67
2023/10/04 09:30:29;;;;;;;4.67;1.60;;;20.90;72.30;;;;;;6273926;22;20423;-67
2023/10/04 09:32:56;;;;;;;6.15;1.88;;;20.90;72.30;;;;;;6273401;22;20074;-67
2023/10/04 09:35:21;;;;;;;6.00;1.83;;;20.90;72.30;;;;;;6273490;22;20501;-66
2023/10/04 09:37:49;;;;;;;6.60;1.70;;;20.90;72.30;;;;;;6273799;22;20023;-66
2023/10/04 09:40:16;;;;;;;9.52;2.15;;;20.90;72.30;;;;;;6271596;22;20020;-65
2023/10/04 09:42:52;;;;;;;7.95;1.83;;;20.90;72.20;;;;;;6273848;22;20019;-67
2023/10/04 09:45:23;;;;;;;8.18;2.13;;;20.90;72.20;;;;;;6273654;22;20443;-66
2023/10/04 09:47:53;;;;;;;6.55;2.00;;;20.90;72.10;;;;;;6273018;22;20022;-65
2023/10/04 09:50:25;;;;;;;7.60;1.50;;;20.90;72.20;;;;;;6273116;22;20012;-65
2023/10/04 09:52:51;;;;;;;8.73;1.83;;;20.90;73.10;;;;;;6276028;22;20023;-66
2023/10/04 09:55:17;;;;;;;9.05;2.10;;;20.90;72.40;;;;;;6273249;22;20317;-66
2023/10/04 09:57:43;;;;;;;6.30;2.10;;;20.90;72.20;;;;;;6274591;22;20027;-66
2023/10/04 10:00:17;;;;;;;8.18;2.00;;;20.90;72.00;;;;;;6273377;22;20015;-66
2023/10/04 10:02:51;;;;;;;7.47;2.03;;;20.90;71.90;;;;;;6250573;22;20051;-66
2023/10/04 10:05:37;;;;;;;8.20;2.00;;;20.90;71.90;;;;;;6250059;22;20085;-65
2023/10/04 10:08:06;;;;;;;10.18;2.10;;;20.90;71.80;;;;;;6247273;22;20015;-66
2023/10/04 10:10:34;;;;;;;8.35;1.92;;;20.90;71.80;;;;;;6273714;22;20094;-67
2023/10/04 10:13:00;;;;;;;9.13;2.60;;;20.90;71.90;;;;;;6274210;22;20463;-66
2023/10/04 10:15:26;;;;;;;11.80;2.22;;;20.90;71.90;;;;;;6273418;22;20090;-65
2023/10/04 10:17:52;;;;;;;10.27;3.10;;;21.00;72.00;;;;;;6274047;22;20026;-66
2023/10/04 10:20:19;;;;;;;10.40;2.80;;;21.00;72.00;;;;;;6248025;22;20101;-66
2023/10/04 10:23:00;;;;;;;7.70;2.40;;;21.00;72.00;;;;;;6248261;22;20051;-64
2023/10/04 10:25:32;;;;;;;9.55;2.80;;;21.00;72.10;;;;;;6273027;22;20422;-74
2023/10/04 10:27:58;;;;;;;13.95;3.35;;;21.00;72.10;;;;;;6274241;22;20085;-65
2023/10/04 10:30:24;;;;;;;12.43;3.28;;;21.00;72.00;;;;;;6274466;22;20016;-65
2023/10/04 10:32:54;;;;;;;14.52;2.97;;;21.00;71.90;;;;;;6274335;22;20051;-65
2023/10/04 10:35:56;;;;;;;8.18;3.05;;;21.00;71.90;;;;;;6273556;22;20034;-65
2023/10/04 10:38:39;;;;;;;8.18;2.70;;;21.00;71.80;;;;;;6274008;22;20031;-65
2023/10/04 10:41:05;;;;;;;10.15;2.60;;;21.00;71.80;;;;;;6274235;22;20019;-65
2023/10/04 10:43:31;;;;;;;10.63;3.38;;;21.00;71.90;;;;;;6272881;22;20031;-65
2023/10/04 10:45:57;;;;;;;11.65;2.80;;;21.00;71.80;;;;;;6248525;22;20034;-65
2023/10/04 10:48:31;;;;;;;10.30;2.50;;;20.90;71.70;;;;;;6273851;22;20019;-65
2023/10/04 10:50:57;;;;;;;8.77;2.95;;;21.00;71.80;;;;;;6273343;22;20016;-65
2023/10/04 10:53:23;;;;;;;11.52;2.85;;;20.90;71.80;;;;;;6273228;22;20061;-65
2023/10/04 10:55:49;;;;;;;10.20;2.83;;;20.90;71.80;;;;;;6275750;22;20086;-65
2023/10/04 10:58:15;;;;;;;8.30;2.67;;;20.90;71.80;;;;;;6272929;22;20047;-65
2023/10/04 11:00:41;;;;;;;10.60;3.00;;;20.90;71.80;;;;;;6274193;22;20015;-65
2023/10/04 11:03:09;;;;;;;10.57;2.88;;;20.90;71.80;;;;;;6276082;22;20046;-65
2023/10/04 11:05:35;;;;;;;11.00;2.78;;;21.00;71.90;;;;;;6275322;22;20444;-65
2023/10/04 11:08:02;;;;;;;7.85;2.70;;;20.90;71.80;;;;;;6275951;22;20020;-65
2023/10/04 11:10:27;;;;;;;10.07;3.28;;;20.90;71.70;;;;;;6275415;22;20020;-65
2023/10/04 11:13:03;;;;;;;8.73;3.22;;;20.90;71.70;;;;;;6275294;22;20019;-65
2023/10/04 11:15:29;;;;;;;10.63;2.95;;;20.90;71.70;;;;;;6275512;22;20024;-65
2023/10/04 11:17:55;;;;;;;8.15;2.97;;;20.90;71.70;;;;;;6274783;22;20019;-65
2023/10/04 11:20:21;;;;;;;9.10;3.05;;;20.90;71.80;;;;;;6275501;22;20521;-65
2023/10/04 11:22:49;;;;;;;8.07;2.85;;;20.90;71.70;;;;;;6275784;22;20015;-65
2023/10/04 11:25:14;;;;;;;7.72;2.60;;;20.90;71.70;;;;;;6276252;22;20018;-65
2023/10/04 11:27:43;;;;;;;8.25;3.00;;;20.90;71.80;;;;;;6275722;22;20047;-65
2023/10/04 11:30:10;;;;;;;;;;;20.90;71.70;;;;;;6275809;22;20061;-65
2023/10/04 11:32:42;;;;;;;6.57;2.65;;;20.90;71.70;;;;;;6274940;22;19922;-65
2023/10/04 11:35:08;;;;;;;6.18;3.00;;;20.80;71.70;;;;;;6275370;22;20026;-65
2023/10/04 11:37:43;;;;;;;9.85;3.15;;;20.80;71.60;;;;;;6277194;22;20019;-65
2023/10/04 11:40:10;;;;;;;9.55;2.78;;;20.80;71.60;;;;;;6274075;22;20102;-65
2023/10/04 11:42:36;;;;;;;7.53;2.80;;;20.80;71.60;;;;;;6275743;22;20074;-65
2023/10/04 11:45:02;;;;;;;7.53;2.60;;;20.80;71.60;;;;;;6275593;22;20024;-65
2023/10/04 11:47:31;;;;;;;9.23;2.55;;;20.80;71.50;;;;;;6248249;22;20016;-65
2023/10/04 11:49:59;;;;;;;10.05;3.50;;;20.80;71.50;;;;;;6275570;22;20035;-65
2023/10/04 11:52:31;;;;;;;6.78;3.17;;;20.80;71.50;;;;;;6275004;22;20027;-65
2023/10/04 11:54:57;;;;;;;10.60;3.20;;;20.80;71.40;;;;;;6274372;22;20051;-65
2023/10/04 11:57:26;;;;;;;9.48;3.10;;;20.80;71.40;;;;;;6275096;22;20019;-65
2023/10/04 11:59:52;;;;;;;9.55;3.03;;;20.80;71.30;;;;;;6274349;22;20027;-65
2023/10/04 12:02:22;;;;;;;5.18;2.30;;;20.80;71.40;;;;;;6274899;22;20047;-65
2023/10/04 12:04:47;;;;;;;8.40;3.03;;;20.80;71.30;;;;;;6275551;22;20485;-65
2023/10/04 12:07:13;;;;;;;8.68;2.42;;;20.80;71.30;;;;;;6274120;22;20015;-65
2023/10/04 12:09:39;;;;;;;7.32;2.88;;;20.70;71.30;;;;;;6275219;22;20019;-65
2023/10/04 12:12:07;;;;;;;8.48;2.72;;;20.70;71.30;;;;;;6277299;22;20016;-65
2023/10/04 12:14:34;;;;;;;7.32;2.80;;;20.70;71.30;;;;;;6274503;22;20019;-65
2023/10/04 12:17:04;;;;;;;9.23;3.10;;;20.70;71.30;;;;;;6275229;22;20346;-65
2023/10/04 12:19:34;;;;;;;9.40;3.08;;;20.70;71.30;;;;;;6275030;22;20095;-65
2023/10/04 12:22:02;;;;;;;6.85;2.67;;;20.70;71.30;;;;;;6275775;22;20023;-65
2023/10/04 12:24:31;;;;;;;8.82;2.80;;;20.70;71.30;;;;;;6274698;22;20058;-65
2023/10/04 12:26:59;;;;;;;7.72;2.83;;;20.70;71.40;;;;;;6276872;22;20019;-64
2023/10/04 12:29:27;;;;;;;6.75;2.45;;;20.70;71.40;;;;;;6274157;22;20435;-65
2023/10/04 12:31:53;;;;;;;6.15;2.63;;;20.70;71.40;;;;;;6275355;22;20023;-65
2023/10/04 12:34:20;;;;;;;8.05;2.80;;;20.70;71.30;;;;;;6274803;22;20011;-65
2023/10/04 12:36:46;;;;;;;7.13;2.50;;;20.70;71.30;;;;;;6275587;22;20016;-65
2023/10/04 12:39:15;;;;;;;7.60;2.63;;;20.70;71.40;;;;;;6274725;22;20109;-65
2023/10/04 12:41:41;;;;;;;8.32;2.70;;;20.70;71.30;;;;;;6274934;22;20015;-65
2023/10/04 12:44:08;;;;;;;9.10;2.85;;;20.70;71.90;;;;;;6274214;22;20099;-65
2023/10/04 12:46:34;;;;;;;10.88;3.03;;;20.70;71.30;;;;;;6275170;22;20015;-65
2023/10/04 12:49:00;;;;;;;8.18;2.65;;;20.70;71.20;;;;;;6274021;22;20347;-65
2023/10/04 12:51:27;;;;;;;10.63;2.88;;;20.70;71.30;;;;;;6274718;22;20079;-65
2023/10/04 12:53:53;;;;;;;7.10;2.47;;;20.70;71.20;;;;;;6276584;22;20016;-65
2023/10/04 12:56:19;;;;;;;7.63;2.63;;;20.70;71.20;;;;;;6273552;22;20716;-65
2023/10/04 12:58:47;;;;;;;8.10;2.90;;;20.70;71.30;;;;;;6275030;22;20053;-65